Time;durP1;ratioP1;P1;durP2;ratioP2;P2;SDS_P1;SDS_P2;PMS_P1;PMS_P2;Temp;Humidity;BMP_temperature;BMP_pressure;BME280_temperature;BME280_humidity;BME280_pressure;Samples;Min_cycle;Max_cycle;Signal;HPM_P1;HPM_P2
2023/08/11 00:01:39;;;;;;;;;;;;;;;23.91;47.15;102128.88;5053874;28;20013;-66
2023/08/11 00:04:05;;;;;;;;;;;;;;;23.86;47.48;102133.88;5067955;28;20006;-66
2023/08/11 00:06:31;;;;;;;;;;;;;;;23.84;47.50;102126.06;5068331;28;20346;-66
2023/08/11 00:08:56;;;;;;;;;;;;;;;23.87;47.34;102122.22;5064431;28;19942;-66
2023/08/11 00:11:22;;;;;;;;;;;;;;;23.89;47.44;102128.22;5060256;28;19928;-66
2023/08/11 00:13:48;;;;;;;;;;;;;;;23.85;47.41;102126.88;5060370;28;19938;-66
2023/08/11 00:16:14;;;;;;;;;;;;;;;23.93;47.36;102129.53;5062668;28;19941;-66
2023/08/11 00:18:40;;;;;;;;;;;;;;;23.94;47.36;102137.31;5061056;28;19967;-66
2023/08/11 00:21:05;;;;;;;;;;;;;;;23.89;47.39;102125.56;5064519;28;20428;-66
2023/08/11 00:23:31;;;;;;;;;;;;;;;23.93;47.50;102121.53;5062587;28;19927;-65
2023/08/11 00:25:56;;;;;;;;;;;;;;;23.87;47.59;102125.72;5063940;28;20389;-66
2023/08/11 00:28:21;;;;;;;;;;;;;;;23.90;47.38;102133.38;5067461;28;20617;-66
2023/08/11 00:30:47;;;;;;;;;;;;;;;23.87;47.28;102124.88;5047175;28;19996;-66
2023/08/11 00:33:12;;;;;;;;;;;;;;;23.87;47.48;102120.38;5063826;28;19936;-66
2023/08/11 00:35:37;;;;;;;;;;;;;;;23.90;47.24;102128.03;5055724;28;19959;-66
2023/08/11 00:38:04;;;;;;;;;;;;;;;23.89;47.39;102126.38;5052213;28;19962;-66
2023/08/11 00:40:30;;;;;;;;;;;;;;;23.91;47.44;102127.03;5057209;28;20286;-66
2023/08/11 00:42:56;;;;;;;;;;;;;;;23.94;47.24;102125.84;5082623;27;19933;-65
2023/08/11 00:45:22;;;;;;;;;;;;;;;23.94;47.45;102120.53;5085138;28;19937;-66
2023/08/11 00:47:48;;;;;;;;;;;;;;;23.79;47.34;102105.31;5059310;28;19960;-66
2023/08/11 00:50:16;;;;;;;;;;;;;;;23.93;47.26;102119.69;5092713;27;20020;-66
2023/08/11 00:52:42;;;;;;;;;;;;;;;23.92;47.38;102117.22;5057932;28;20434;-66
2023/08/11 00:55:09;;;;;;;;;;;;;;;23.95;47.40;102114.19;5054331;28;20330;-66
2023/08/11 00:57:35;;;;;;;;;;;;;;;23.93;47.50;102117.03;5060286;28;19926;-66
2023/08/11 01:00:05;;;;;;;;;;;;;;;23.90;47.43;102122.72;5058399;28;20457;-66
2023/08/11 01:02:36;;;;;;;;;;;;;;;23.94;47.43;102108.06;5049627;28;20284;-66
2023/08/11 01:05:03;;;;;;;;;;;;;;;23.90;47.57;102106.75;5060289;28;19948;-66
2023/08/11 01:07:32;;;;;;;;;;;;;;;23.88;47.61;102106.13;5057460;28;19934;-66
2023/08/11 01:10:02;;;;;;;;;;;;;;;23.87;47.51;102104.44;5054368;28;20297;-66
2023/08/11 01:12:28;;;;;;;;;;;;;;;23.93;47.46;102102.91;5087854;27;19927;-66
2023/08/11 01:15:03;;;;;;;;;;;;;;;23.91;47.24;102099.59;5058886;28;20306;-66
2023/08/11 01:17:29;;;;;;;;;;;;;;;23.92;47.26;102096.78;5059530;28;19941;-66
2023/08/11 01:19:55;;;;;;;;;;;;;;;23.90;47.35;102092.63;5057525;28;20407;-66
2023/08/11 01:22:23;;;;;;;;;;;;;;;23.94;47.16;102092.09;5049326;28;19936;-65
2023/08/11 01:24:50;;;;;;;;;;;;;;;23.93;47.24;102089.63;5050428;28;20389;-65
2023/08/11 01:27:15;;;;;;;;;;;;;;;23.89;47.37;102086.47;5057605;28;19937;-65
2023/08/11 01:29:41;;;;;;;;;;;;;;;23.92;47.40;102085.31;5060109;28;19933;-65
2023/08/11 01:32:08;;;;;;;;;;;;;;;23.90;47.23;102087.31;5060506;28;19937;-65
2023/08/11 01:34:33;;;;;;;;;;;;;;;23.89;47.53;102088.31;5091758;27;19986;-65
2023/08/11 01:37:03;;;;;;;;;;;;;;;23.92;47.34;102079.97;5058788;28;19934;-65
2023/08/11 01:39:29;;;;;;;;;;;;;;;23.94;47.33;102091.25;5061437;28;19947;-65
2023/08/11 01:41:54;;;;;;;;;;;;;;;23.90;47.33;102082.81;5057007;28;20490;-65
2023/08/11 01:44:20;;;;;;;;;;;;;;;23.95;47.31;102079.63;5072771;28;20374;-65
2023/08/11 01:46:46;;;;;;;;;;;;;;;23.89;47.25;102081.16;5063735;28;20040;-65
2023/08/11 01:49:12;;;;;;;;;;;;;;;23.92;47.17;102078.16;5062903;28;19956;-65
2023/08/11 01:51:40;;;;;;;;;;;;;;;23.94;47.24;102077.97;5065480;28;19976;-66
2023/08/11 01:54:07;;;;;;;;;;;;;;;23.94;47.34;102062.00;5072057;28;19964;-65
2023/08/11 01:56:33;;;;;;;;;;;;;;;23.90;47.35;102061.53;5054711;28;19940;-65
2023/08/11 01:58:59;;;;;;;;;;;;;;;23.91;47.31;102057.03;5055185;28;19929;-65
2023/08/11 02:01:24;;;;;;;;;;;;;;;23.91;47.20;102063.19;5050898;28;20064;-64
2023/08/11 02:03:49;;;;;;;;;;;;;;;23.92;47.26;102066.69;5052087;28;19988;-65
2023/08/11 02:06:15;;;;;;;;;;;;;;;23.90;47.29;102061.53;5070642;28;19938;-65
2023/08/11 02:08:40;;;;;;;;;;;;;;;23.96;47.15;102070.63;5056957;28;21154;-65
2023/08/11 02:11:06;;;;;;;;;;;;;;;23.90;47.27;102068.69;5085345;27;19937;-65
2023/08/11 02:13:31;;;;;;;;;;;;;;;23.91;47.34;102057.88;5052345;28;19985;-65
2023/08/11 02:16:00;;;;;;;;;;;;;;;23.88;47.46;102063.56;5062216;28;19997;-65
2023/08/11 02:18:25;;;;;;;;;;;;;;;23.89;47.28;102067.03;5059727;28;20390;-65
2023/08/11 02:20:51;;;;;;;;;;;;;;;23.90;47.28;102076.66;5062504;28;19965;-65
2023/08/11 02:23:17;;;;;;;;;;;;;;;23.91;47.31;102075.66;5048966;28;19942;-65
2023/08/11 02:25:42;;;;;;;;;;;;;;;23.75;47.14;102037.53;5056118;28;19995;-66
2023/08/11 02:28:10;;;;;;;;;;;;;;;23.90;47.25;102063.38;5059857;28;20067;-66
2023/08/11 02:30:37;;;;;;;;;;;;;;;23.91;47.20;102057.03;5052817;28;20026;-66
2023/08/11 02:33:03;;;;;;;;;;;;;;;23.86;47.41;102060.22;5060516;28;20421;-66
2023/08/11 02:35:28;;;;;;;;;;;;;;;23.86;47.44;102048.75;5051874;28;20030;-65
2023/08/11 02:37:53;;;;;;;;;;;;;;;23.89;47.24;102043.91;5051907;28;19960;-65
2023/08/11 02:40:22;;;;;;;;;;;;;;;23.87;47.22;102051.22;5052500;28;20301;-65
2023/08/11 02:42:54;;;;;;;;;;;;;;;23.86;47.28;102052.22;5055695;28;19928;-65
2023/08/11 02:45:20;;;;;;;;;;;;;;;23.89;47.14;102043.91;5077938;27;19930;-65
2023/08/11 02:47:46;;;;;;;;;;;;;;;23.90;47.13;102050.06;5055371;28;19933;-66
2023/08/11 02:50:11;;;;;;;;;;;;;;;23.85;47.45;102042.59;5055600;28;20388;-66
2023/08/11 02:52:37;;;;;;;;;;;;;;;23.87;47.28;102045.91;5057673;28;19944;-66
2023/08/11 02:55:03;;;;;;;;;;;;;;;23.88;47.46;102036.94;5055647;28;19986;-66
2023/08/11 02:57:28;;;;;;;;;;;;;;;23.87;47.13;102045.06;5049055;28;19943;-66
2023/08/11 02:59:54;;;;;;;;;;;;;;;23.86;47.37;102033.59;5082380;28;19928;-66
2023/08/11 03:02:19;;;;;;;;;;;;;;;23.88;47.15;102031.63;5057965;28;19939;-66
2023/08/11 03:04:46;;;;;;;;;;;;;;;23.89;47.18;102029.78;5060866;28;19946;-66
2023/08/11 03:07:12;;;;;;;;;;;;;;;23.90;47.16;102024.28;5049830;28;19965;-66
2023/08/11 03:09:39;;;;;;;;;;;;;;;23.87;47.24;102032.59;5047699;28;20087;-66
2023/08/11 03:12:06;;;;;;;;;;;;;;;23.85;47.21;102025.81;5084251;28;19934;-65
2023/08/11 03:14:31;;;;;;;;;;;;;;;23.85;47.22;102023.97;5057883;28;19960;-66
2023/08/11 03:16:57;;;;;;;;;;;;;;;23.82;47.27;102032.31;5070098;28;19938;-65
2023/08/11 03:19:22;;;;;;;;;;;;;;;23.84;47.20;102030.31;5053758;28;20541;-66
2023/08/11 03:21:48;;;;;;;;;;;;;;;23.86;47.21;102038.09;5073383;28;20058;-65
2023/08/11 03:24:13;;;;;;;;;;;;;;;23.85;47.38;102037.28;5073145;28;21382;-64
2023/08/11 03:26:39;;;;;;;;;;;;;;;23.89;47.17;102035.94;5067787;28;20434;-66
2023/08/11 03:29:05;;;;;;;;;;;;;;;23.83;47.36;102039.28;5064657;28;20028;-66
2023/08/11 03:31:33;;;;;;;;;;;;;;;23.86;47.11;102030.94;5059545;28;19943;-66
2023/08/11 03:33:58;;;;;;;;;;;;;;;23.80;47.30;102032.50;5063313;28;19930;-65
2023/08/11 03:36:24;;;;;;;;;;;;;;;23.88;47.14;102041.41;5061053;28;20324;-66
2023/08/11 03:38:50;;;;;;;;;;;;;;;23.85;47.29;102031.94;5058819;28;19928;-66
2023/08/11 03:41:16;;;;;;;;;;;;;;;23.81;47.28;102039.47;5090512;28;20765;-66
2023/08/11 03:43:42;;;;;;;;;;;;;;;23.89;47.17;102040.44;5091681;27;19938;-66
2023/08/11 03:46:07;;;;;;;;;;;;;;;23.84;47.28;102048.91;5065567;28;19934;-66
2023/08/11 03:48:35;;;;;;;;;;;;;;;23.85;47.18;102047.91;5063344;28;20020;-66
2023/08/11 03:51:01;;;;;;;;;;;;;;;23.84;47.24;102048.09;5056936;28;20488;-66
2023/08/11 03:53:29;;;;;;;;;;;;;;;23.85;47.19;102039.94;5064534;28;19995;-66
2023/08/11 03:55:54;;;;;;;;;;;;;;;23.83;47.21;102039.28;5087222;28;20586;-66
2023/08/11 03:58:21;;;;;;;;;;;;;;;23.84;47.38;102040.94;5075739;28;19940;-66
2023/08/11 04:00:48;;;;;;;;;;;;;;;23.84;47.19;102038.28;5056275;28;19937;-65
2023/08/11 04:03:14;;;;;;;;;;;;;;;23.83;47.40;102046.44;5092186;27;19947;-65
2023/08/11 04:05:40;;;;;;;;;;;;;;;23.84;47.26;102040.13;5053087;28;19941;-65
2023/08/11 04:08:06;;;;;;;;;;;;;;;23.84;47.16;102032.13;5058553;28;20006;-65
2023/08/11 04:10:31;;;;;;;;;;;;;;;23.83;47.29;102026.00;5059440;28;19946;-65
2023/08/11 04:12:57;;;;;;;;;;;;;;;23.84;47.26;102035.63;5054849;28;20005;-65
2023/08/11 04:15:24;;;;;;;;;;;;;;;23.83;47.17;102036.63;5056716;28;19954;-65
2023/08/11 04:17:49;;;;;;;;;;;;;;;23.78;47.27;102037.16;5077366;28;20448;-65
2023/08/11 04:20:15;;;;;;;;;;;;;;;23.84;47.18;102034.78;5054222;28;19938;-66
2023/08/11 04:22:41;;;;;;;;;;;;;;;23.78;47.25;102039.81;5057409;28;19933;-65
2023/08/11 04:25:09;;;;;;;;;;;;;;;23.76;47.30;102041.84;5053824;28;19965;-66
2023/08/11 04:27:35;;;;;;;;;;;;;;;23.77;47.40;102037.34;5083349;27;20315;-66
2023/08/11 04:30:02;;;;;;;;;;;;;;;23.75;47.53;102036.69;5057474;28;20023;-65
2023/08/11 04:32:28;;;;;;;;;;;;;;;23.74;47.40;102035.88;5094285;27;19927;-65
2023/08/11 04:34:53;;;;;;;;;;;;;;;23.76;47.36;102033.84;5052945;28;19953;-65
2023/08/11 04:37:19;;;;;;;;;;;;;;;23.78;47.20;102029.19;5080863;27;19938;-65
2023/08/11 04:39:45;;;;;;;;;;;;;;;23.74;47.39;102029.72;5060056;28;20409;-65
2023/08/11 04:42:11;;;;;;;;;;;;;;;23.74;47.39;102032.38;5085674;27;19937;-66
2023/08/11 04:44:36;;;;;;;;;;;;;;;23.75;47.40;102029.53;5058206;28;19948;-66
2023/08/11 04:47:02;;;;;;;;;;;;;;;23.71;47.42;102022.94;5051296;28;20030;-66
2023/08/11 04:49:28;;;;;;;;;;;;;;;23.72;47.29;102027.25;5060840;28;19957;-66
2023/08/11 04:51:53;;;;;;;;;;;;;;;23.72;47.38;102018.44;5059774;28;19950;-66
2023/08/11 04:54:19;;;;;;;;;;;;;;;23.71;47.49;102022.94;5084656;27;20409;-66
2023/08/11 04:56:46;;;;;;;;;;;;;;;23.52;47.53;101981.66;5073548;28;19995;-66
2023/08/11 04:59:12;;;;;;;;;;;;;;;23.74;47.25;102011.94;5055138;28;19942;-66
2023/08/11 05:01:37;;;;;;;;;;;;;;;23.73;47.48;102012.94;5057086;28;19935;-66
2023/08/11 05:04:04;;;;;;;;;;;;;;;23.75;47.40;102018.91;5059645;28;19981;-66
2023/08/11 05:06:29;;;;;;;;;;;;;;;23.73;47.39;102018.25;5060166;28;19992;-65
2023/08/11 05:08:55;;;;;;;;;;;;;;;23.71;47.55;102011.47;5053171;28;19961;-66
2023/08/11 05:11:20;;;;;;;;;;;;;;;23.73;47.35;102012.13;5061751;28;19954;-66
2023/08/11 05:13:45;;;;;;;;;;;;;;;23.69;47.50;102013.44;5060040;28;19934;-66
2023/08/11 05:16:11;;;;;;;;;;;;;;;23.71;47.31;102011.47;5056430;28;20348;-66
2023/08/11 05:18:36;;;;;;;;;;;;;;;23.69;47.42;102013.44;5056604;28;19975;-66
2023/08/11 05:21:03;;;;;;;;;;;;;;;23.69;47.39;102011.63;5059220;28;19938;-66
2023/08/11 05:23:28;;;;;;;;;;;;;;;23.71;47.46;102017.63;5056305;28;19930;-66
2023/08/11 05:25:53;;;;;;;;;;;;;;;23.69;47.60;102013.44;5059190;28;20453;-66
2023/08/11 05:28:19;;;;;;;;;;;;;;;23.69;47.38;102010.78;5058701;28;19940;-66
2023/08/11 05:30:45;;;;;;;;;;;;;;;23.72;47.43;102013.94;5058098;28;19931;-65
2023/08/11 05:33:13;;;;;;;;;;;;;;;23.67;47.46;102015.47;5057836;28;20622;-65
2023/08/11 05:35:39;;;;;;;;;;;;;;;23.67;47.39;102007.47;5056109;28;19953;-66
2023/08/11 05:38:05;;;;;;;;;;;;;;;23.69;47.62;102013.44;5055337;28;20301;-66
2023/08/11 05:40:30;;;;;;;;;;;;;;;23.70;47.59;102010.63;5084377;27;19985;-65
2023/08/11 05:42:56;;;;;;;;;;;;;;;23.70;47.49;102001.84;5053035;28;19936;-66
2023/08/11 05:45:21;;;;;;;;;;;;;;;23.67;47.57;102004.81;5063881;28;19938;-66
2023/08/11 05:47:47;;;;;;;;;;;;;;;23.63;47.82;102011.50;5060354;28;19976;-65
2023/08/11 05:50:13;;;;;;;;;;;;;;;23.70;47.62;102000.00;5057780;28;19965;-66
2023/08/11 05:52:38;;;;;;;;;;;;;;;23.69;47.46;102003.63;5051907;28;20309;-66
2023/08/11 05:55:04;;;;;;;;;;;;;;;23.70;47.58;102000.00;5055593;28;19924;-65
2023/08/11 05:57:29;;;;;;;;;;;;;;;23.69;47.60;101998.31;5057114;28;19981;-65
2023/08/11 05:59:55;;;;;;;;;;;;;;;23.68;47.66;101998.50;5057278;28;20355;-66
2023/08/11 06:02:20;;;;;;;;;;;;;;;23.70;47.54;102004.50;5057201;28;19931;-66
2023/08/11 06:04:46;;;;;;;;;;;;;;;23.70;47.51;101999.19;5060711;28;20011;-65
2023/08/11 06:07:11;;;;;;;;;;;;;;;23.67;47.55;102002.16;5054881;28;19958;-65
2023/08/11 06:09:37;;;;;;;;;;;;;;;23.68;47.58;102004.66;5050984;28;19944;-66
2023/08/11 06:12:02;;;;;;;;;;;;;;;23.70;47.63;102007.16;5059842;28;19935;-66
2023/08/11 06:14:27;;;;;;;;;;;;;;;23.69;47.52;102000.16;5056016;28;20016;-66
2023/08/11 06:16:53;;;;;;;;;;;;;;;23.65;47.71;102007.66;5062200;28;19969;-66
2023/08/11 06:19:18;;;;;;;;;;;;;;;23.73;47.44;101996.97;5062603;28;19937;-65
2023/08/11 06:21:45;;;;;;;;;;;;;;;23.70;47.57;102002.66;5063884;28;20029;-66
2023/08/11 06:24:11;;;;;;;;;;;;;;;23.68;47.50;102003.81;5056058;28;19940;-65
2023/08/11 06:26:36;;;;;;;;;;;;;;;23.69;47.70;102000.16;5057305;28;20750;-66
2023/08/11 06:29:03;;;;;;;;;;;;;;;23.71;47.48;102000.84;5060760;28;20439;-66
2023/08/11 06:31:29;;;;;;;;;;;;;;;23.66;47.69;102006.66;5062932;28;19986;-66
2023/08/11 06:33:55;;;;;;;;;;;;;;;23.72;47.40;101998.00;5052408;28;19989;-66
2023/08/11 06:36:20;;;;;;;;;;;;;;;23.68;47.73;102001.16;5052409;28;19972;-66
2023/08/11 06:38:46;;;;;;;;;;;;;;;23.70;47.54;101997.34;5052167;28;19943;-66
2023/08/11 06:41:11;;;;;;;;;;;;;;;23.68;47.64;101998.50;5057041;28;20472;-66
2023/08/11 06:43:38;;;;;;;;;;;;;;;23.67;47.80;101991.53;5051678;28;20025;-66
2023/08/11 06:46:04;;;;;;;;;;;;;;;23.69;47.77;101994.84;5051477;28;20272;-66
2023/08/11 06:48:29;;;;;;;;;;;;;;;23.69;47.65;101990.34;5058357;28;19938;-67
2023/08/11 06:50:56;;;;;;;;;;;;;;;23.72;47.88;101989.19;5049808;28;20379;-66
2023/08/11 06:53:21;;;;;;;;;;;;;;;23.73;47.71;101990.84;5050070;28;19937;-65
2023/08/11 06:55:47;;;;;;;;;;;;;;;23.75;47.89;101987.00;5059380;28;20410;-66
2023/08/11 06:58:12;;;;;;;;;;;;;;;23.71;47.77;101990.19;5054322;28;20008;-66
2023/08/11 07:00:37;;;;;;;;;;;;;;;23.76;47.92;101995.78;5059941;28;20015;-66
2023/08/11 07:03:03;;;;;;;;;;;;;;;23.84;47.68;101992.22;5068004;28;19956;-66
2023/08/11 07:05:28;;;;;;;;;;;;;;;23.77;47.74;102000.09;5069017;28;19936;-66
2023/08/11 07:07:54;;;;;;;;;;;;;;;23.84;47.70;102001.03;5070986;28;19934;-66
2023/08/11 07:10:19;;;;;;;;;;;;;;;23.79;47.83;101995.44;5065345;28;19941;-66
2023/08/11 07:12:44;;;;;;;;;;;;;;;23.83;47.93;101999.38;5061911;28;19926;-67
2023/08/11 07:15:10;;;;;;;;;;;;;;;23.85;47.77;102001.88;5060004;28;20532;-66
2023/08/11 07:17:36;;;;;;;;;;;;;;;23.85;47.77;102004.53;5057379;28;19931;-67
2023/08/11 07:20:01;;;;;;;;;;;;;;;23.83;48.08;102011.88;5052278;28;20033;-67
2023/08/11 07:22:27;;;;;;;;;;;;;;;23.85;47.86;102013.34;5064109;28;19956;-67
2023/08/11 07:24:53;;;;;;;;;;;;;;;23.84;47.92;102010.84;5062155;28;19930;-66
2023/08/11 07:27:18;;;;;;;;;;;;;;;23.86;47.93;102019.47;5057603;28;19934;-67
2023/08/11 07:29:43;;;;;;;;;;;;;;;23.79;48.01;102017.53;5061658;28;19936;-67
2023/08/11 07:32:09;;;;;;;;;;;;;;;23.79;47.88;102019.38;5052060;28;19983;-67
2023/08/11 07:34:36;;;;;;;;;;;;;;;23.82;48.10;102019.00;5067661;28;20311;-67
2023/08/11 07:37:02;;;;;;;;;;;;;;;23.86;47.92;102020.31;5056308;28;20004;-67
2023/08/11 07:39:28;;;;;;;;;;;;;;;23.88;47.95;102013.00;5053202;28;20462;-66
2023/08/11 07:41:53;;;;;;;;;;;;;;;23.89;48.20;102011.16;5052351;28;20024;-66
2023/08/11 07:44:19;;;;;;;;;;;;;;;23.89;48.20;102011.16;5060296;28;19967;-67
2023/08/11 07:46:44;;;;;;;;;;;;;;;23.90;48.15;102013.66;5057340;28;19927;-68
2023/08/11 07:49:09;;;;;;;;;;;;;;;23.93;47.95;102000.00;5047650;28;19967;-67
2023/08/11 07:51:35;;;;;;;;;;;;;;;23.91;48.36;101991.38;5055696;28;19935;-67
2023/08/11 07:54:00;;;;;;;;;;;;;;;23.93;48.24;102001.81;5050146;28;19932;-67
2023/08/11 07:56:26;;;;;;;;;;;;;;;23.95;48.02;102007.78;5049486;28;19947;-67
2023/08/11 07:58:53;;;;;;;;;;;;;;;23.99;48.05;101996.59;5055949;28;20029;-67
2023/08/11 08:01:18;;;;;;;;;;;;;;;23.99;48.08;102004.59;5046643;28;19983;-67
2023/08/11 08:03:44;;;;;;;;;;;;;;;23.96;48.19;101998.81;5055067;28;19932;-67
2023/08/11 08:06:09;;;;;;;;;;;;;;;23.98;48.16;102005.59;5053254;28;19942;-66
2023/08/11 08:08:35;;;;;;;;;;;;;;;23.99;47.95;102004.59;5068418;28;19933;-67
2023/08/11 08:11:01;;;;;;;;;;;;;;;24.00;47.98;101998.25;5051267;28;19943;-67
2023/08/11 08:13:26;;;;;;;;;;;;;;;24.01;48.14;101997.25;5050308;28;19982;-66
2023/08/11 08:15:52;;;;;;;;;;;;;;;24.03;48.14;102002.38;5062731;28;20486;-67
2023/08/11 08:18:17;;;;;;;;;;;;;;;24.04;48.14;101998.72;5060499;28;20048;-67
2023/08/11 08:20:43;;;;;;;;;;;;;;;24.02;48.11;101992.75;5051379;28;20395;-67
2023/08/11 08:23:08;;;;;;;;;;;;;;;24.02;48.25;101996.22;5055577;28;19935;-67
2023/08/11 08:25:34;;;;;;;;;;;;;;;24.03;48.10;101987.25;5061509;28;19932;-66
2023/08/11 08:27:59;;;;;;;;;;;;;;;24.04;48.19;101994.22;5055758;28;19979;-67
2023/08/11 08:30:24;;;;;;;;;;;;;;;24.06;48.29;101994.06;5057784;28;19944;-67
2023/08/11 08:32:50;;;;;;;;;;;;;;;24.10;48.14;101992.69;5059401;28;19968;-67
2023/08/11 08:35:15;;;;;;;;;;;;;;;24.09;48.10;101993.69;5053382;28;19958;-67
2023/08/11 08:37:40;;;;;;;;;;;;;;;24.10;48.20;101990.88;5058492;28;20367;-67
2023/08/11 08:40:08;;;;;;;;;;;;;;;24.15;47.92;101989.50;5055909;28;20010;-67
2023/08/11 08:42:34;;;;;;;;;;;;;;;24.18;47.92;101989.13;5061553;28;20006;-66
2023/08/11 08:45:00;;;;;;;;;;;;;;;24.15;48.01;101987.66;5058434;28;19945;-67
2023/08/11 08:47:26;;;;;;;;;;;;;;;24.19;48.18;101985.44;5063966;28;19942;-67
2023/08/11 08:49:51;;;;;;;;;;;;;;;24.20;47.98;101989.75;5055600;28;19984;-67
2023/08/11 08:52:17;;;;;;;;;;;;;;;24.20;48.12;101987.09;5063163;28;20372;-67
2023/08/11 08:54:43;;;;;;;;;;;;;;;24.19;48.14;101982.78;5054667;28;20035;-68
2023/08/11 08:57:09;;;;;;;;;;;;;;;24.20;48.14;101979.13;5066313;28;20573;-67
2023/08/11 08:59:38;;;;;;;;;;;;;;;24.23;48.12;101984.91;5065510;28;19944;-67
2023/08/11 09:02:04;;;;;;;;;;;;;;;24.26;48.00;101981.91;5055872;28;19940;-67
2023/08/11 09:04:30;;;;;;;;;;;;;;;24.27;47.97;101988.06;5063167;28;19947;-68
2023/08/11 09:06:56;;;;;;;;;;;;;;;24.25;48.08;101982.09;5058806;28;19970;-67
2023/08/11 09:09:23;;;;;;;;;;;;;;;24.26;48.11;101981.91;5056137;28;19975;-68
2023/08/11 09:11:49;;;;;;;;;;;;;;;24.26;48.60;101989.88;5056519;28;20037;-68
2023/08/11 09:14:14;;;;;;;;;;;;;;;24.30;48.34;101985.88;5059534;28;20032;-68
2023/08/11 09:16:40;;;;;;;;;;;;;;;24.26;48.58;101983.75;5060544;28;19938;-68
2023/08/11 09:19:09;;;;;;;;;;;;;;;24.20;48.24;101971.13;5055053;28;19930;-68
2023/08/11 09:21:34;;;;;;;;;;;;;;;24.30;48.30;101982.38;5055458;28;19984;-68
2023/08/11 09:23:59;;;;;;;;;;;;;;;24.09;48.31;101946.63;5059749;28;19981;-68
2023/08/11 09:26:25;;;;;;;;;;;;;;;24.28;48.44;101979.06;5059072;28;19939;-68
2023/08/11 09:28:51;;;;;;;;;;;;;;;24.32;48.29;101978.53;5059044;28;19928;-68
2023/08/11 09:31:20;;;;;;;;;;;;;;;24.32;48.40;101975.03;5054653;28;19943;-68
2023/08/11 09:33:45;;;;;;;;;;;;;;;24.31;48.47;101979.53;5072744;28;20032;-68
2023/08/11 09:36:11;;;;;;;;;;;;;;;24.32;48.24;101975.03;5061648;28;20491;-68
2023/08/11 09:38:36;;;;;;;;;;;;;;;24.33;48.11;101974.84;5061812;28;19962;-68
2023/08/11 09:41:03;;;;;;;;;;;;;;;24.32;48.32;101970.53;5069973;28;19946;-68
2023/08/11 09:43:30;;;;;;;;;;;;;;;24.34;48.31;101973.03;5055772;28;20656;-68
2023/08/11 09:45:55;;;;;;;;;;;;;;;24.34;48.25;101965.03;5064569;28;20006;-67
2023/08/11 09:48:22;;;;;;;;;;;;;;;24.33;48.32;101974.03;5059826;28;20339;-67
2023/08/11 09:50:49;;;;;;;;;;;;;;;24.37;48.28;101975.31;5062474;28;19954;-69
2023/08/11 09:53:15;;;;;;;;;;;;;;;24.34;48.33;101965.88;5056617;28;19940;-67
2023/08/11 09:55:41;;;;;;;;;;;;;;;24.38;48.19;101967.16;5059461;28;19958;-67
2023/08/11 09:58:08;;;;;;;;;;;;;;;24.40;48.22;101970.44;5058036;28;19957;-68
2023/08/11 10:00:34;;;;;;;;;;;;;;;24.43;47.98;101976.44;5054525;28;19932;-67
2023/08/11 10:03:01;;;;;;;;;;;;;;;24.40;48.13;101965.13;5056806;28;19941;-68
2023/08/11 10:05:28;;;;;;;;;;;;;;;24.40;48.14;101958.97;5047750;28;19941;-68
2023/08/11 10:07:55;;;;;;;;;;;;;;;24.44;48.33;101954.13;5053897;28;19931;-68
2023/08/11 10:10:22;;;;;;;;;;;;;;;24.43;48.17;101966.63;5055536;28;19937;-67
2023/08/11 10:12:48;;;;;;;;;;;;;;;24.39;48.37;101958.16;5052319;28;20455;-68
2023/08/11 10:15:16;;;;;;;;;;;;;;;24.43;48.04;101965.78;5055980;28;19951;-68
2023/08/11 10:17:41;;;;;;;;;;;;;;;24.42;48.13;101967.63;5062934;28;19982;-67
2023/08/11 10:20:07;;;;;;;;;;;;;;;24.41;48.12;101965.94;5056627;28;20741;-67
2023/08/11 10:22:33;;;;;;;;;;;;;;;24.46;48.02;101960.94;5055262;28;20061;-68
2023/08/11 10:25:00;;;;;;;;;;;;;;;24.41;48.31;101964.13;5052797;28;20519;-68
2023/08/11 10:27:26;;;;;;;;;;;;;;;24.41;48.08;101945.47;5051900;28;20001;-68
2023/08/11 10:29:52;;;;;;;;;;;;;;;24.40;48.49;101950.97;5057987;28;19970;-68
2023/08/11 10:32:18;;;;;;;;;;;;;;;24.42;48.41;101959.66;5054206;28;19939;-68
2023/08/11 10:34:43;;;;;;;;;;;;;;;24.45;48.15;101955.78;5052812;28;20000;-68
2023/08/11 10:37:09;;;;;;;;;;;;;;;24.44;48.13;101954.97;5053698;28;19935;-68
2023/08/11 10:39:35;;;;;;;;;;;;;;;24.36;48.23;101955.84;5055865;28;19935;-67
2023/08/11 10:42:02;;;;;;;;;;;;;;;24.42;48.12;101949.00;5055971;28;20044;-68
2023/08/11 10:44:28;;;;;;;;;;;;;;;24.41;48.25;101945.47;5055777;28;20538;-68
2023/08/11 10:46:56;;;;;;;;;;;;;;;24.44;48.24;101949.63;5083287;27;19984;-67
2023/08/11 10:49:33;;;;;;;;;;;;;;;24.48;48.24;101948.25;5052275;28;19956;-68
2023/08/11 10:51:58;;;;;;;;;;;;;;;24.43;48.15;101942.66;5059225;28;19971;-68
2023/08/11 10:54:25;;;;;;;;;;;;;;;24.44;48.14;101941.66;5056214;28;20409;-68
2023/08/11 10:56:51;;;;;;;;;;;;;;;24.46;48.39;101946.78;5060748;28;19933;-68
2023/08/11 10:59:17;;;;;;;;;;;;;;;24.45;48.19;101945.13;5056545;28;20003;-68
2023/08/11 11:01:45;;;;;;;;;;;;;;;24.46;48.24;101947.63;5052785;28;19939;-68
2023/08/11 11:04:11;;;;;;;;;;;;;;;24.47;48.22;101951.09;5044671;28;20042;-68
2023/08/11 11:06:37;;;;;;;;;;;;;;;24.46;48.37;101936.13;5056644;28;20065;-68
2023/08/11 11:09:03;;;;;;;;;;;;;;;24.48;48.34;101936.78;5056419;28;20400;-67
2023/08/11 11:11:30;;;;;;;;;;;;;;;24.50;48.13;101934.75;5054409;28;19934;-67
2023/08/11 11:13:56;;;;;;;;;;;;;;;24.47;48.22;101932.47;5059296;28;20390;-68
2023/08/11 11:16:21;;;;;;;;;;;;;;;24.49;48.30;101930.44;5061330;28;19954;-68
2023/08/11 11:18:47;;;;;;;;;;;;;;;24.44;48.30;101935.50;5054515;28;20508;-68
2023/08/11 11:21:13;;;;;;;;;;;;;;;24.44;48.37;101935.50;5055239;28;20056;-68
2023/08/11 11:23:42;;;;;;;;;;;;;;;24.43;48.42;101932.00;5056045;28;19934;-68
2023/08/11 11:26:08;;;;;;;;;;;;;;;24.37;48.53;101933.56;5047708;28;20438;-68
2023/08/11 11:28:33;;;;;;;;;;;;;;;24.38;48.43;101935.19;5054740;28;19936;-69
2023/08/11 11:30:58;;;;;;;;;;;;;;;24.38;48.46;101937.03;5051278;28;20028;-69
2023/08/11 11:33:24;;;;;;;;;;;;;;;24.37;48.52;101933.56;5055501;28;19985;-69
2023/08/11 11:35:50;;;;;;;;;;;;;;;24.39;48.51;101925.38;5053633;28;20541;-69
2023/08/11 11:38:15;;;;;;;;;;;;;;;24.36;48.61;101923.09;5057224;28;19941;-69
2023/08/11 11:40:40;;;;;;;;;;;;;;;24.38;48.64;101921.06;5059490;28;19939;-69
2023/08/11 11:43:06;;;;;;;;;;;;;;;24.38;48.57;101923.72;5060356;28;20374;-69
2023/08/11 11:45:31;;;;;;;;;;;;;;;24.37;48.58;101922.91;5057931;28;20022;-69
2023/08/11 11:47:57;;;;;;;;;;;;;;;24.39;48.74;101914.72;5064579;28;20018;-69
2023/08/11 11:50:22;;;;;;;;;;;;;;;24.41;48.60;101912.69;5062394;28;19958;-69
2023/08/11 11:52:48;;;;;;;;;;;;;;;24.43;48.62;101913.38;5067184;28;20419;-69
2023/08/11 11:55:13;;;;;;;;;;;;;;;24.44;48.37;101907.03;5055764;28;20568;-68
2023/08/11 11:57:39;;;;;;;;;;;;;;;24.45;48.47;101914.00;5060284;28;19940;-69
2023/08/11 12:00:12;;;;;;;;;;;;;;;24.44;48.55;101909.69;5053218;28;19931;-69
2023/08/11 12:02:40;;;;;;;;;;;;;;;24.46;48.40;101910.34;5053295;28;19927;-69
2023/08/11 12:05:06;;;;;;;;;;;;;;;24.41;48.38;101902.88;5057425;28;19932;-69
2023/08/11 12:07:32;;;;;;;;;;;;;;;24.46;48.44;101898.88;5060909;28;19927;-68
2023/08/11 12:09:58;;;;;;;;;;;;;;;24.44;48.41;101901.72;5085113;27;19977;-69
2023/08/11 12:12:24;;;;;;;;;;;;;;;24.45;48.46;101907.84;5055735;28;19932;-68
2023/08/11 12:14:49;;;;;;;;;;;;;;;24.46;48.48;101906.84;5084319;27;19959;-67
2023/08/11 12:17:14;;;;;;;;;;;;;;;24.46;48.52;101898.88;5081987;27;21679;-67
2023/08/11 12:19:40;;;;;;;;;;;;;;;24.44;48.66;101912.34;5059662;28;20394;-67
2023/08/11 12:22:05;;;;;;;;;;;;;;;24.37;48.78;101911.44;5056919;28;19943;-67
2023/08/11 12:24:31;;;;;;;;;;;;;;;24.41;48.60;101904.72;5057970;28;20030;-67
2023/08/11 12:26:56;;;;;;;;;;;;;;;24.40;48.77;101900.41;5063528;28;19945;-67
2023/08/11 12:29:21;;;;;;;;;;;;;;;24.34;48.74;101895.81;5057484;28;19978;-67